Time;durP1;ratioP1;P1;durP2;ratioP2;P2;SDS_P1;SDS_P2;PMS_P1;PMS_P2;Temp;Humidity;BMP_temperature;BMP_pressure;BME280_temperature;BME280_humidity;BME280_pressure;Samples;Min_cycle;Max_cycle;Signal;HPM_P1;HPM_P2
2023/07/31 00:00:28;;;;;;;1.98;1.38;;;14.40;99.90;;;;;;4993779;28;20034;-75
2023/07/31 00:02:54;;;;;;;2.40;1.33;;;14.40;99.90;;;;;;4993799;28;20142;-74
2023/07/31 00:05:21;;;;;;;2.75;1.67;;;14.40;99.90;;;;;;4993747;28;20033;-75
2023/07/31 00:07:47;;;;;;;3.75;1.55;;;14.40;99.90;;;;;;4993691;28;20046;-74
2023/07/31 00:10:12;;;;;;;2.28;1.45;;;14.40;99.90;;;;;;4993754;28;20049;-74
2023/07/31 00:12:39;;;;;;;5.05;1.80;;;14.40;99.90;;;;;;4993663;28;20038;-74
2023/07/31 00:15:06;;;;;;;4.10;1.55;;;14.30;99.90;;;;;;4993864;28;20503;-74
2023/07/31 00:17:32;;;;;;;2.50;1.60;;;14.30;99.90;;;;;;4992316;28;20405;-74
2023/07/31 00:19:58;;;;;;;2.85;1.75;;;14.30;99.90;;;;;;4993666;28;20022;-75
2023/07/31 00:22:23;;;;;;;4.28;1.27;;;14.20;99.90;;;;;;4993549;28;20033;-74
2023/07/31 00:24:49;;;;;;;3.03;1.90;;;14.20;99.90;;;;;;4992391;28;20034;-74
2023/07/31 00:27:15;;;;;;;4.03;1.90;;;14.20;99.90;;;;;;4992600;28;20037;-75
2023/07/31 00:29:41;;;;;;;2.33;1.75;;;14.10;99.90;;;;;;4992697;28;20112;-74
2023/07/31 00:32:07;;;;;;;5.00;1.80;;;14.10;99.90;;;;;;4993529;28;20050;-74
2023/07/31 00:34:33;;;;;;;4.25;1.70;;;14.00;99.90;;;;;;4992388;28;20030;-75
2023/07/31 00:36:58;;;;;;;2.75;1.73;;;14.00;99.90;;;;;;4993298;28;20026;-75
2023/07/31 00:39:24;;;;;;;3.05;1.45;;;14.00;99.90;;;;;;4995018;28;20117;-74
2023/07/31 00:41:49;;;;;;;2.72;1.60;;;14.00;99.90;;;;;;4997046;28;20022;-74
2023/07/31 00:44:15;;;;;;;3.45;1.45;;;14.00;99.90;;;;;;4997070;28;20056;-74
2023/07/31 00:46:41;;;;;;;2.60;1.63;;;13.90;99.90;;;;;;4996929;28;20105;-74
2023/07/31 00:49:07;;;;;;;3.47;1.50;;;13.90;99.90;;;;;;4996935;28;20034;-74
2023/07/31 00:51:33;;;;;;;4.38;2.05;;;14.00;99.90;;;;;;4996046;28;20389;-74
2023/07/31 00:54:00;;;;;;;5.82;1.65;;;14.10;99.90;;;;;;4996917;28;20041;-74
2023/07/31 00:56:27;;;;;;;4.28;1.60;;;14.10;99.90;;;;;;4996711;28;20455;-74
2023/07/31 00:58:53;;;;;;;3.28;1.63;;;14.20;99.90;;;;;;4995503;28;20076;-74
2023/07/31 01:01:19;;;;;;;2.58;1.42;;;14.10;99.90;;;;;;4996120;28;20416;-74
2023/07/31 01:03:45;;;;;;;2.92;1.30;;;14.10;99.90;;;;;;4996793;28;20500;-74
2023/07/31 01:06:29;;;;;;;3.58;1.48;;;14.00;99.90;;;;;;4996578;28;20034;-74
2023/07/31 01:09:02;;;;;;;2.22;1.50;;;14.00;99.90;;;;;;4996605;28;20469;-74
2023/07/31 01:11:41;;;;;;;3.40;1.52;;;14.00;99.90;;;;;;4996816;28;20026;-74
2023/07/31 01:14:07;;;;;;;4.20;1.77;;;14.00;99.90;;;;;;4996741;28;20037;-74
2023/07/31 01:16:32;;;;;;;4.00;1.60;;;14.10;99.90;;;;;;4996289;28;20034;-74
2023/07/31 01:18:58;;;;;;;3.67;1.23;;;14.10;99.90;;;;;;4996195;28;20031;-75
2023/07/31 01:21:37;;;;;;;3.03;1.52;;;14.20;99.90;;;;;;4996324;28;20046;-74
2023/07/31 01:24:35;;;;;;;2.88;1.30;;;14.20;99.90;;;;;;4996597;28;20101;-75
2023/07/31 01:27:09;;;;;;;3.17;1.75;;;14.20;99.90;;;;;;4996269;28;20026;-74
2023/07/31 01:29:56;;;;;;;2.83;1.40;;;14.20;99.90;;;;;;4996280;28;20084;-74
2023/07/31 01:32:22;;;;;;;2.60;1.58;;;14.10;99.90;;;;;;4996326;28;20054;-74
2023/07/31 01:34:49;;;;;;;3.35;2.03;;;14.10;99.90;;;;;;4996144;28;20026;-75
2023/07/31 01:37:15;;;;;;;2.22;1.67;;;14.10;99.90;;;;;;4995907;28;20480;-74
2023/07/31 01:39:40;;;;;;;5.88;1.88;;;14.00;99.90;;;;;;4995979;28;20034;-74
2023/07/31 01:42:07;;;;;;;3.20;1.70;;;14.00;99.90;;;;;;4995955;28;20392;-74
2023/07/31 01:44:33;;;;;;;3.63;1.80;;;14.10;99.90;;;;;;4994749;28;20118;-74
2023/07/31 01:47:00;;;;;;;6.03;1.98;;;14.10;99.90;;;;;;4995888;28;20415;-74
2023/07/31 01:49:25;;;;;;;3.65;1.90;;;14.00;99.90;;;;;;4994458;28;20034;-74
2023/07/31 01:51:51;;;;;;;2.42;1.63;;;14.00;99.90;;;;;;4996331;28;20033;-74
2023/07/31 01:54:17;;;;;;;3.33;2.13;;;14.00;99.90;;;;;;4996015;28;20034;-74
2023/07/31 01:56:42;;;;;;;3.17;2.10;;;14.00;99.90;;;;;;4995626;28;20125;-74
2023/07/31 01:59:08;;;;;;;4.40;2.38;;;14.00;99.90;;;;;;4995525;28;20027;-74
2023/07/31 02:01:34;;;;;;;3.42;2.10;;;14.00;99.90;;;;;;4995585;28;20429;-74
2023/07/31 02:03:59;;;;;;;4.07;2.28;;;14.00;99.90;;;;;;4994388;28;20030;-74
2023/07/31 02:06:25;;;;;;;2.97;2.00;;;14.10;99.90;;;;;;4994211;28;20057;-74
2023/07/31 02:08:51;;;;;;;3.10;1.90;;;14.10;99.90;;;;;;4995447;28;20080;-74
2023/07/31 02:11:16;;;;;;;2.60;1.80;;;14.10;99.90;;;;;;4994217;28;20031;-74
2023/07/31 02:13:42;;;;;;;2.28;1.63;;;14.10;99.90;;;;;;4995334;28;20046;-74
2023/07/31 02:16:08;;;;;;;2.75;1.30;;;14.10;99.90;;;;;;4995286;28;20116;-74
2023/07/31 02:18:33;;;;;;;5.13;1.70;;;14.10;99.90;;;;;;4995069;28;20492;-75
2023/07/31 02:20:59;;;;;;;3.65;1.83;;;14.10;99.90;;;;;;4993901;28;20049;-74
2023/07/31 02:23:25;;;;;;;4.20;1.77;;;14.10;99.90;;;;;;4994308;28;20027;-74
2023/07/31 02:25:50;;;;;;;3.42;1.67;;;14.10;99.90;;;;;;4995076;28;20081;-74
2023/07/31 02:28:16;;;;;;;3.40;1.70;;;14.10;99.90;;;;;;4993749;28;20037;-74
2023/07/31 02:30:46;;;;;;;2.25;1.55;;;14.00;99.90;;;;;;4995320;28;20035;-74
2023/07/31 02:33:11;;;;;;;3.45;1.65;;;14.00;99.90;;;;;;4995292;28;20038;-74
2023/07/31 02:35:37;;;;;;;5.20;1.58;;;13.90;99.90;;;;;;4994927;28;20023;-74
2023/07/31 02:38:03;;;;;;;4.90;1.40;;;13.90;99.90;;;;;;4994851;28;20026;-74
2023/07/31 02:40:28;;;;;;;3.05;1.50;;;13.90;99.90;;;;;;4994804;28;20081;-74
2023/07/31 02:42:54;;;;;;;2.70;1.55;;;13.90;99.90;;;;;;4995030;28;20045;-74
2023/07/31 02:45:19;;;;;;;4.32;1.95;;;13.80;99.90;;;;;;4995085;28;20121;-74
2023/07/31 02:47:45;;;;;;;3.17;2.08;;;13.80;99.90;;;;;;4994748;28;20034;-74
2023/07/31 02:50:11;;;;;;;2.80;1.80;;;13.80;99.90;;;;;;4994998;28;20023;-74
2023/07/31 02:52:36;;;;;;;2.97;1.67;;;13.80;99.90;;;;;;4994861;28;20101;-74
2023/07/31 02:55:02;;;;;;;3.25;1.85;;;13.80;99.90;;;;;;4993493;28;20030;-74
2023/07/31 02:57:28;;;;;;;4.40;1.77;;;13.70;99.90;;;;;;4994661;28;20033;-74
2023/07/31 02:59:55;;;;;;;4.20;1.75;;;13.70;99.90;;;;;;4994013;28;20046;-74
2023/07/31 03:02:20;;;;;;;3.55;2.00;;;13.60;99.90;;;;;;4994472;28;20501;-74
2023/07/31 03:04:46;;;;;;;4.18;2.00;;;13.60;99.90;;;;;;4994708;28;20468;-74
2023/07/31 03:07:11;;;;;;;3.63;2.33;;;13.60;99.90;;;;;;4994530;28;20477;-74
2023/07/31 03:09:37;;;;;;;5.68;2.88;;;13.60;99.90;;;;;;4994331;28;20037;-74
2023/07/31 03:12:03;;;;;;;3.92;2.72;;;13.60;99.90;;;;;;4994652;28;20034;-74
2023/07/31 03:14:29;;;;;;;4.30;2.50;;;13.60;99.90;;;;;;4994387;28;20034;-74
2023/07/31 03:16:54;;;;;;;3.95;2.50;;;13.60;99.90;;;;;;4994304;28;20065;-74
2023/07/31 03:19:20;;;;;;;3.17;2.20;;;13.60;99.90;;;;;;4994110;28;20118;-74
2023/07/31 03:21:46;;;;;;;4.78;2.30;;;13.50;99.90;;;;;;4994253;28;20034;-74
2023/07/31 03:24:12;;;;;;;3.45;2.17;;;13.50;99.90;;;;;;4994146;28;20026;-74
2023/07/31 03:26:41;;;;;;;4.20;1.73;;;13.40;99.90;;;;;;4994229;28;20030;-74
2023/07/31 03:29:07;;;;;;;2.97;1.70;;;13.40;99.90;;;;;;4992908;28;20026;-75
2023/07/31 03:31:32;;;;;;;3.33;1.73;;;13.30;99.90;;;;;;4994148;28;20378;-74
2023/07/31 03:33:58;;;;;;;3.95;1.60;;;13.40;99.90;;;;;;4994339;28;20038;-74
2023/07/31 03:36:24;;;;;;;2.38;1.42;;;13.30;99.90;;;;;;4993834;28;20041;-74
2023/07/31 03:38:51;;;;;;;2.53;1.60;;;13.30;99.90;;;;;;4993361;28;20030;-75
2023/07/31 03:41:16;;;;;;;3.05;1.70;;;13.20;99.90;;;;;;5023868;28;20022;-74
2023/07/31 03:43:42;;;;;;;4.68;1.83;;;13.20;99.90;;;;;;5013500;28;20472;-75
2023/07/31 03:46:07;;;;;;;3.88;2.15;;;13.20;99.90;;;;;;5013654;28;20109;-74
2023/07/31 03:48:33;;;;;;;3.45;2.05;;;13.10;99.90;;;;;;5014209;28;20038;-75
2023/07/31 03:50:59;;;;;;;3.08;1.90;;;13.10;99.90;;;;;;4995713;28;20373;-74
2023/07/31 03:53:24;;;;;;;2.85;1.73;;;13.10;99.90;;;;;;5012438;28;20113;-74
2023/07/31 03:55:50;;;;;;;2.58;1.58;;;13.10;99.90;;;;;;5012269;28;20061;-74
2023/07/31 03:58:15;;;;;;;2.42;1.60;;;13.20;99.90;;;;;;5013356;28;20041;-74
2023/07/31 04:00:41;;;;;;;3.25;1.50;;;13.10;99.90;;;;;;5013382;28;20026;-74
2023/07/31 04:03:07;;;;;;;3.78;1.55;;;13.10;99.90;;;;;;5013399;28;20024;-75
2023/07/31 04:05:33;;;;;;;3.35;2.10;;;13.10;99.90;;;;;;5013364;28;20030;-74
2023/07/31 04:07:59;;;;;;;7.65;1.70;;;13.20;99.90;;;;;;5013231;28;20029;-74
2023/07/31 04:10:24;;;;;;;3.65;1.95;;;13.20;99.90;;;;;;4995764;28;20056;-74
2023/07/31 04:12:50;;;;;;;3.80;1.77;;;13.20;99.90;;;;;;5012385;28;20480;-74
2023/07/31 04:15:16;;;;;;;2.67;1.75;;;13.20;99.90;;;;;;5016244;28;20103;-74
2023/07/31 04:17:42;;;;;;;2.60;1.80;;;13.10;99.90;;;;;;5017045;28;20184;-74
2023/07/31 04:20:08;;;;;;;2.38;1.60;;;13.20;99.90;;;;;;5017163;28;20038;-74
2023/07/31 04:22:34;;;;;;;3.10;1.75;;;13.20;99.90;;;;;;5015854;28;20033;-74
2023/07/31 04:24:59;;;;;;;2.95;1.75;;;13.20;99.90;;;;;;5017012;28;20030;-74
2023/07/31 04:27:25;;;;;;;3.58;1.98;;;13.10;99.90;;;;;;5016839;28;20022;-74
2023/07/31 04:29:51;;;;;;;4.07;1.80;;;13.10;99.90;;;;;;5017419;28;20022;-74
2023/07/31 04:32:16;;;;;;;2.60;1.75;;;13.10;99.90;;;;;;5015649;28;20061;-74
2023/07/31 04:34:43;;;;;;;6.30;2.20;;;13.10;99.90;;;;;;5016770;28;20480;-74
2023/07/31 04:37:08;;;;;;;4.43;2.63;;;13.00;99.90;;;;;;5016978;28;20057;-74
2023/07/31 04:39:34;;;;;;;4.55;2.42;;;13.10;99.90;;;;;;5016597;28;20049;-75
2023/07/31 04:42:00;;;;;;;5.00;3.08;;;13.10;99.90;;;;;;5016626;28;20033;-74
2023/07/31 04:44:25;;;;;;;5.28;2.35;;;13.10;99.90;;;;;;5015381;28;20112;-75
2023/07/31 04:46:51;;;;;;;4.50;2.55;;;13.10;99.90;;;;;;5016612;28;20030;-74
2023/07/31 04:49:17;;;;;;;4.10;2.33;;;13.20;99.90;;;;;;5016499;28;20483;-75
2023/07/31 04:51:42;;;;;;;4.53;2.30;;;13.30;99.90;;;;;;5015330;28;20029;-75
2023/07/31 04:54:08;;;;;;;4.25;1.80;;;13.30;99.90;;;;;;5015213;28;20033;-75
2023/07/31 04:56:33;;;;;;;4.60;2.72;;;13.40;99.90;;;;;;5016267;28;20038;-75
2023/07/31 04:58:59;;;;;;;3.70;2.40;;;13.50;99.90;;;;;;5016255;28;20057;-74
2023/07/31 05:01:25;;;;;;;3.15;2.30;;;13.50;99.90;;;;;;5016624;28;20120;-74
2023/07/31 05:03:51;;;;;;;4.53;2.40;;;13.60;99.90;;;;;;4997457;28;20022;-74
2023/07/31 05:06:16;;;;;;;3.10;2.10;;;13.60;99.90;;;;;;4996620;28;20041;-74
2023/07/31 05:08:42;;;;;;;3.85;2.42;;;13.60;99.90;;;;;;4996485;28;20114;-74
2023/07/31 05:11:08;;;;;;;5.88;3.08;;;13.70;99.90;;;;;;4996789;28;20031;-75
2023/07/31 05:13:33;;;;;;;4.10;2.13;;;13.70;99.90;;;;;;4995196;28;20030;-74
2023/07/31 05:15:59;;;;;;;5.88;2.72;;;13.70;99.90;;;;;;4996370;28;20030;-74
2023/07/31 05:18:25;;;;;;;5.28;2.40;;;13.70;99.90;;;;;;4996133;28;20034;-74
2023/07/31 05:20:50;;;;;;;4.95;2.90;;;13.70;99.90;;;;;;4996366;28;20396;-74
2023/07/31 05:23:16;;;;;;;5.50;3.38;;;13.70;99.90;;;;;;4996246;28;20439;-74
2023/07/31 05:25:42;;;;;;;4.90;2.90;;;13.70;99.90;;;;;;4995773;28;20041;-74
2023/07/31 05:28:07;;;;;;;4.05;2.70;;;13.80;99.90;;;;;;4996041;28;20046;-74
2023/07/31 05:30:33;;;;;;;4.32;2.50;;;13.90;99.90;;;;;;4995543;28;20377;-74
2023/07/31 05:32:59;;;;;;;5.05;2.70;;;14.00;99.90;;;;;;4996249;28;20031;-74
2023/07/31 05:35:24;;;;;;;5.82;2.90;;;14.00;99.90;;;;;;4994957;28;20045;-74
2023/07/31 05:37:50;;;;;;;5.35;3.00;;;14.10;99.90;;;;;;4994815;28;20030;-74
2023/07/31 05:40:16;;;;;;;8.68;3.53;;;14.20;99.90;;;;;;4996007;28;20041;-74
2023/07/31 05:42:42;;;;;;;7.53;4.60;;;14.20;99.90;;;;;;4996001;28;20023;-74
2023/07/31 05:45:08;;;;;;;11.48;4.10;;;14.30;99.90;;;;;;4995945;28;20022;-74
2023/07/31 05:47:34;;;;;;;6.85;3.83;;;14.40;99.90;;;;;;4995691;28;20395;-75
2023/07/31 05:49:59;;;;;;;5.45;3.88;;;14.50;99.90;;;;;;4994634;28;20027;-74
2023/07/31 05:52:25;;;;;;;7.50;4.70;;;14.60;99.90;;;;;;4995753;28;20473;-74
2023/07/31 05:54:51;;;;;;;6.78;4.15;;;14.60;99.90;;;;;;4995998;28;20373;-74
2023/07/31 05:57:17;;;;;;;7.85;4.03;;;14.70;99.90;;;;;;4995544;28;20037;-74
2023/07/31 05:59:42;;;;;;;5.45;3.92;;;14.70;99.90;;;;;;4994466;28;20042;-74
2023/07/31 06:02:08;;;;;;;8.77;3.80;;;14.80;99.90;;;;;;4994312;28;20473;-74
2023/07/31 06:04:34;;;;;;;8.18;4.35;;;14.80;99.90;;;;;;4995854;28;20034;-74
2023/07/31 06:07:00;;;;;;;7.22;4.63;;;14.80;99.90;;;;;;4995706;28;20041;-74
2023/07/31 06:09:26;;;;;;;5.07;3.70;;;14.90;99.90;;;;;;4995572;28;20037;-74
2023/07/31 06:11:51;;;;;;;5.13;3.85;;;14.90;99.90;;;;;;4994295;28;20023;-74
2023/07/31 06:14:17;;;;;;;6.68;4.32;;;14.90;99.90;;;;;;4995420;28;20030;-74
2023/07/31 06:16:44;;;;;;;5.10;3.63;;;14.90;99.90;;;;;;4995487;28;20384;-74
2023/07/31 06:19:10;;;;;;;5.43;3.55;;;15.00;99.90;;;;;;4995131;28;20165;-74
2023/07/31 06:21:39;;;;;;;5.60;3.53;;;15.00;99.90;;;;;;4993868;28;20026;-74
2023/07/31 06:24:08;;;;;;;6.25;3.70;;;15.00;99.90;;;;;;4995247;28;20026;-74
2023/07/31 06:26:34;;;;;;;4.60;3.45;;;15.10;99.90;;;;;;4995165;28;20105;-74
2023/07/31 06:29:00;;;;;;;7.25;4.43;;;15.10;99.90;;;;;;4995144;28;20050;-74
2023/07/31 06:31:25;;;;;;;6.45;3.53;;;15.20;99.90;;;;;;4995165;28;20464;-74
2023/07/31 06:33:52;;;;;;;5.97;3.40;;;15.20;99.90;;;;;;4995241;28;20077;-74
2023/07/31 06:36:18;;;;;;;8.32;3.83;;;15.30;99.90;;;;;;4992994;28;20033;-74
2023/07/31 06:38:44;;;;;;;4.53;3.15;;;15.30;99.90;;;;;;4993598;28;20031;-74
2023/07/31 06:41:10;;;;;;;5.53;3.25;;;15.40;99.90;;;;;;4993835;28;20038;-74
2023/07/31 06:43:36;;;;;;;4.72;3.33;;;15.40;99.90;;;;;;4994120;28;20077;-74
2023/07/31 06:46:06;;;;;;;5.50;3.33;;;15.50;99.90;;;;;;4994857;28;20109;-74
2023/07/31 06:48:37;;;;;;;6.25;4.20;;;15.50;99.90;;;;;;4993589;28;20081;-74
2023/07/31 06:51:03;;;;;;;7.78;4.07;;;15.60;99.90;;;;;;4995148;28;20512;-74
2023/07/31 06:53:29;;;;;;;4.72;3.38;;;15.60;99.90;;;;;;4994659;28;20034;-74
2023/07/31 06:55:55;;;;;;;5.07;3.30;;;15.70;99.90;;;;;;4994596;28;20096;-74
2023/07/31 06:58:20;;;;;;;5.32;3.03;;;15.70;99.90;;;;;;4994573;28;20026;-74
2023/07/31 07:00:46;;;;;;;6.28;4.30;;;15.80;99.90;;;;;;4994626;28;20400;-73
2023/07/31 07:03:14;;;;;;;8.25;4.07;;;15.90;99.90;;;;;;4993307;28;20392;-73
2023/07/31 07:05:40;;;;;;;8.27;4.60;;;15.90;99.90;;;;;;4994762;28;20030;-73
2023/07/31 07:08:06;;;;;;;7.57;4.88;;;16.00;99.90;;;;;;4994302;28;20042;-73
2023/07/31 07:10:31;;;;;;;7.65;4.35;;;16.00;99.90;;;;;;4994429;28;20116;-73
2023/07/31 07:12:57;;;;;;;4.63;3.58;;;16.10;99.90;;;;;;4994564;28;20026;-73
2023/07/31 07:15:23;;;;;;;6.63;4.05;;;16.10;99.90;;;;;;4992941;28;20101;-73
2023/07/31 07:17:48;;;;;;;5.60;3.60;;;16.20;99.90;;;;;;4993303;28;20030;-73
2023/07/31 07:20:14;;;;;;;4.88;3.35;;;16.20;99.90;;;;;;4992158;28;20034;-74
2023/07/31 07:22:42;;;;;;;6.43;3.83;;;16.30;99.90;;;;;;4991460;28;20029;-73
2023/07/31 07:25:08;;;;;;;7.22;4.45;;;16.40;99.90;;;;;;4993427;28;20019;-75
2023/07/31 07:27:34;;;;;;;6.60;4.47;;;16.50;99.90;;;;;;4992149;28;20032;-74
2023/07/31 07:30:00;;;;;;;8.88;5.32;;;16.60;99.90;;;;;;4993502;28;20045;-75
2023/07/31 07:32:26;;;;;;;8.95;5.57;;;16.80;99.90;;;;;;4992351;28;20485;-73
2023/07/31 07:34:52;;;;;;;8.68;5.93;;;16.90;99.90;;;;;;4994201;28;20110;-74
2023/07/31 07:37:18;;;;;;;9.85;5.72;;;16.90;99.90;;;;;;4990980;28;20077;-75
2023/07/31 07:39:44;;;;;;;8.20;4.28;;;17.00;99.90;;;;;;4992153;28;20033;-75
2023/07/31 07:42:09;;;;;;;10.20;7.47;;;17.10;99.90;;;;;;4992204;28;20469;-75
2023/07/31 07:44:35;;;;;;;8.35;5.18;;;17.20;99.90;;;;;;4992399;28;20069;-75
2023/07/31 07:47:01;;;;;;;6.20;4.50;;;17.20;99.90;;;;;;4992479;28;20038;-75
2023/07/31 07:49:26;;;;;;;9.02;5.95;;;17.30;99.90;;;;;;4999056;28;20395;-75
2023/07/31 07:51:52;;;;;;;7.70;5.30;;;17.40;99.90;;;;;;4999810;28;20041;-75
2023/07/31 07:54:19;;;;;;;6.22;4.00;;;17.50;99.90;;;;;;4983295;28;20042;-75
2023/07/31 07:56:44;;;;;;;6.65;3.80;;;17.70;99.90;;;;;;5001264;28;20057;-74
2023/07/31 07:59:10;;;;;;;5.50;3.70;;;17.80;99.90;;;;;;5000223;28;20461;-74
2023/07/31 08:01:35;;;;;;;4.22;3.25;;;17.90;99.90;;;;;;4999160;28;20481;-75
2023/07/31 08:04:01;;;;;;;6.15;3.22;;;17.90;99.90;;;;;;5000372;28;20026;-74
2023/07/31 08:06:27;;;;;;;6.00;3.63;;;18.10;99.90;;;;;;4999085;28;20030;-74
2023/07/31 08:08:52;;;;;;;7.05;3.35;;;18.30;99.90;;;;;;5000125;28;20055;-74
2023/07/31 08:11:18;;;;;;;3.97;2.80;;;18.40;99.90;;;;;;4999031;28;20026;-74
2023/07/31 08:13:44;;;;;;;5.28;2.63;;;18.50;99.90;;;;;;5000469;28;20113;-74
2023/07/31 08:16:09;;;;;;;6.15;2.75;;;18.60;99.90;;;;;;5000414;28;20471;-75
2023/07/31 08:18:35;;;;;;;5.00;2.70;;;18.80;99.90;;;;;;5000070;28;20034;-74
2023/07/31 08:21:02;;;;;;;8.15;2.83;;;19.00;99.90;;;;;;5000826;28;20076;-74
2023/07/31 08:23:28;;;;;;;4.25;2.33;;;19.10;99.90;;;;;;5000420;28;20057;-74
2023/07/31 08:25:54;;;;;;;7.30;2.83;;;19.20;99.90;;;;;;4998858;28;20472;-74
2023/07/31 08:28:19;;;;;;;6.10;2.63;;;19.30;99.90;;;;;;4999998;28;20035;-74
2023/07/31 08:30:45;;;;;;;6.22;2.75;;;19.40;99.90;;;;;;5000105;28;20110;-74
2023/07/31 08:33:11;;;;;;;4.80;2.90;;;19.50;99.90;;;;;;5000165;28;20391;-75
2023/07/31 08:35:37;;;;;;;3.55;2.47;;;19.70;99.90;;;;;;4999940;28;20082;-74
2023/07/31 08:38:02;;;;;;;5.70;2.40;;;19.70;99.90;;;;;;5000241;28;20022;-74
2023/07/31 08:40:28;;;;;;;5.22;3.03;;;19.90;99.90;;;;;;5000004;28;20018;-74
2023/07/31 08:42:56;;;;;;;4.60;2.90;;;20.00;99.90;;;;;;5000001;28;20038;-74
2023/07/31 08:45:22;;;;;;;3.58;2.40;;;20.10;99.90;;;;;;4999947;28;20046;-74
2023/07/31 08:47:49;;;;;;;5.22;2.80;;;20.20;99.90;;;;;;4999904;28;20069;-75
2023/07/31 08:50:17;;;;;;;4.70;3.08;;;20.40;99.90;;;;;;4999930;28;20022;-74
2023/07/31 08:52:43;;;;;;;5.90;2.80;;;20.60;99.90;;;;;;4999897;28;20027;-75
2023/07/31 08:55:09;;;;;;;4.13;2.70;;;20.60;99.90;;;;;;4998642;28;20027;-74
2023/07/31 08:57:37;;;;;;;6.22;2.83;;;20.70;99.90;;;;;;4999860;28;20476;-74
2023/07/31 09:00:06;;;;;;;6.78;2.78;;;20.80;99.90;;;;;;4997562;28;20543;-74
2023/07/31 09:02:45;;;;;;;5.38;2.60;;;20.90;99.90;;;;;;4996749;28;20031;-74
2023/07/31 09:05:11;;;;;;;5.03;2.80;;;21.00;99.90;;;;;;4996783;28;20023;-74
2023/07/31 09:07:37;;;;;;;3.83;2.47;;;21.10;99.90;;;;;;4996577;28;20037;-74
2023/07/31 09:10:04;;;;;;;4.85;2.45;;;21.20;99.90;;;;;;4996627;28;20023;-74
2023/07/31 09:12:31;;;;;;;4.18;2.70;;;21.30;99.90;;;;;;4996679;28;20022;-74
2023/07/31 09:14:59;;;;;;;4.60;2.42;;;21.50;99.90;;;;;;4996437;28;20037;-75
2023/07/31 09:17:36;;;;;;;5.95;2.92;;;21.60;99.90;;;;;;4996169;28;20515;-75
2023/07/31 09:20:17;;;;;;;5.68;2.35;;;21.70;99.90;;;;;;4996390;28;20026;-74
2023/07/31 09:22:44;;;;;;;4.45;2.50;;;21.70;99.90;;;;;;4996405;28;20026;-75
2023/07/31 09:25:21;;;;;;;3.70;2.25;;;21.90;99.90;;;;;;4996357;28;20026;-74
2023/07/31 09:27:47;;;;;;;5.18;2.45;;;22.20;99.90;;;;;;4996206;28;20138;-74
2023/07/31 09:30:13;;;;;;;4.30;2.75;;;22.50;99.90;;;;;;4996272;28;20026;-75
2023/07/31 09:32:39;;;;;;;4.00;2.42;;;22.70;99.90;;;;;;4996135;28;20037;-74
2023/07/31 09:35:22;;;;;;;4.22;2.55;;;22.70;99.90;;;;;;4996373;28;20026;-75
2023/07/31 09:37:52;;;;;;;3.92;2.25;;;22.90;99.90;;;;;;4996065;28;20157;-74
2023/07/31 09:40:38;;;;;;;3.07;2.13;;;23.10;99.90;;;;;;4996665;28;20018;-75
2023/07/31 09:43:10;;;;;;;5.60;1.90;;;23.30;99.90;;;;;;4996415;28;20023;-75
2023/07/31 09:45:38;;;;;;;3.13;2.03;;;23.50;99.90;;;;;;4996026;28;20396;-75
2023/07/31 09:48:11;;;;;;;3.95;2.38;;;23.60;99.90;;;;;;4995919;28;20026;-74
2023/07/31 09:50:39;;;;;;;3.05;2.10;;;23.60;99.40;;;;;;4995907;28;20170;-74
2023/07/31 09:53:06;;;;;;;3.42;1.95;;;23.50;99.20;;;;;;4995908;28;20030;-75
2023/07/31 09:55:32;;;;;;;2.67;1.90;;;23.50;99.10;;;;;;4995696;28;20389;-75
2023/07/31 09:57:58;;;;;;;3.50;2.10;;;23.50;98.50;;;;;;4995693;28;20038;-74
2023/07/31 10:00:28;;;;;;;3.13;2.08;;;23.50;98.90;;;;;;4995694;28;20022;-74
2023/07/31 10:02:57;;;;;;;3.38;1.90;;;23.50;97.70;;;;;;4995809;28;20105;-75
2023/07/31 10:05:23;;;;;;;2.55;1.88;;;23.60;97.20;;;;;;4995528;28;20485;-74
2023/07/31 10:07:55;;;;;;;4.63;2.20;;;23.80;96.70;;;;;;4995611;28;20041;-74
2023/07/31 10:10:22;;;;;;;3.53;2.10;;;24.00;96.50;;;;;;4994249;28;20026;-74
2023/07/31 10:12:52;;;;;;;4.25;2.25;;;24.20;97.30;;;;;;4994498;28;20044;-74
2023/07/31 10:15:19;;;;;;;3.58;2.15;;;24.30;96.00;;;;;;4995299;28;20496;-74
2023/07/31 10:17:47;;;;;;;5.30;2.08;;;24.40;95.20;;;;;;4995373;28;20109;-74
2023/07/31 10:20:16;;;;;;;4.95;2.28;;;24.30;94.40;;;;;;4995463;28;20018;-74
2023/07/31 10:22:42;;;;;;;2.65;2.03;;;24.30;93.70;;;;;;4995373;28;20022;-74
2023/07/31 10:25:09;;;;;;;3.22;2.03;;;24.20;94.30;;;;;;4993993;28;20057;-74
2023/07/31 10:27:38;;;;;;;3.58;2.00;;;24.20;94.10;;;;;;4995350;28;20369;-74
2023/07/31 10:30:05;;;;;;;3.20;2.25;;;24.10;92.00;;;;;;4995512;28;20061;-74
2023/07/31 10:32:32;;;;;;;3.03;1.77;;;23.90;93.30;;;;;;4995470;28;20050;-74
2023/07/31 10:34:58;;;;;;;4.00;2.10;;;23.80;93.80;;;;;;4995084;28;20022;-74
2023/07/31 10:37:27;;;;;;;4.95;2.25;;;23.90;93.70;;;;;;4994936;28;20495;-74
2023/07/31 10:40:03;;;;;;;4.43;2.17;;;23.90;93.60;;;;;;4995090;28;20021;-74
2023/07/31 10:42:38;;;;;;;4.68;2.30;;;24.00;93.80;;;;;;4993567;28;20501;-74
2023/07/31 10:45:07;;;;;;;3.63;1.95;;;24.10;93.60;;;;;;4994831;28;20052;-74
2023/07/31 10:47:42;;;;;;;3.67;2.10;;;24.20;92.60;;;;;;4994788;28;20054;-74
2023/07/31 10:50:12;;;;;;;3.90;2.00;;;24.30;91.90;;;;;;4995259;28;20045;-74
2023/07/31 10:52:38;;;;;;;4.65;2.20;;;24.40;92.20;;;;;;4994780;28;20054;-74
2023/07/31 10:55:15;;;;;;;3.70;2.22;;;24.60;91.00;;;;;;4994698;28;20054;-74
2023/07/31 10:57:45;;;;;;;3.20;2.05;;;24.60;88.50;;;;;;4993285;28;20031;-74
2023/07/31 11:00:28;;;;;;;3.53;2.00;;;24.50;90.20;;;;;;4994585;28;20022;-75
2023/07/31 11:03:01;;;;;;;3.67;2.45;;;24.50;90.30;;;;;;4995860;28;20110;-74
2023/07/31 11:05:51;;;;;;;3.42;2.00;;;24.40;89.10;;;;;;4996038;28;20053;-74
2023/07/31 11:08:21;;;;;;;3.53;2.23;;;24.50;89.30;;;;;;4993397;28;20026;-74
2023/07/31 11:10:49;;;;;;;2.83;1.85;;;24.70;89.50;;;;;;4995072;28;20262;-74
2023/07/31 11:13:15;;;;;;;4.38;2.20;;;24.70;87.80;;;;;;4994944;28;20038;-74
2023/07/31 11:15:40;;;;;;;3.83;1.70;;;24.80;88.40;;;;;;4993438;28;20038;-74
2023/07/31 11:18:07;;;;;;;5.18;2.10;;;24.90;86.10;;;;;;4994309;28;20113;-74
2023/07/31 11:20:34;;;;;;;3.58;2.30;;;25.00;87.40;;;;;;4994354;28;20033;-74
2023/07/31 11:23:06;;;;;;;4.43;2.08;;;25.10;85.40;;;;;;5008892;28;20055;-74
2023/07/31 11:25:32;;;;;;;3.90;1.92;;;25.30;87.10;;;;;;4994180;28;20046;-75
2023/07/31 11:28:06;;;;;;;3.47;2.10;;;25.40;86.70;;;;;;4994203;28;20077;-75
2023/07/31 11:30:32;;;;;;;5.00;2.08;;;25.40;85.20;;;;;;4994468;28;20501;-75
2023/07/31 11:32:59;;;;;;;3.47;2.20;;;25.40;85.60;;;;;;4992818;28;20034;-75
2023/07/31 11:35:25;;;;;;;3.35;2.00;;;25.40;84.20;;;;;;4993990;28;20069;-75
2023/07/31 11:37:50;;;;;;;3.33;1.98;;;25.50;86.00;;;;;;4993861;28;20511;-75
2023/07/31 11:40:18;;;;;;;2.92;1.73;;;25.50;84.80;;;;;;4994332;28;20072;-75
2023/07/31 11:42:43;;;;;;;4.18;1.92;;;25.40;86.20;;;;;;4993978;28;20093;-74
2023/07/31 11:45:09;;;;;;;5.55;2.30;;;25.40;86.90;;;;;;4994243;28;20108;-74
2023/07/31 11:47:37;;;;;;;3.13;1.73;;;25.50;87.20;;;;;;4993816;28;20030;-74
2023/07/31 11:50:05;;;;;;;6.78;2.17;;;25.50;88.30;;;;;;4993938;28;20037;-74
2023/07/31 11:52:36;;;;;;;3.72;2.03;;;25.60;87.50;;;;;;4993932;28;20026;-74
2023/07/31 11:55:01;;;;;;;;;;;25.70;86.30;;;;;;4994574;28;20023;-74
2023/07/31 11:57:28;;;;;;;4.32;2.30;;;25.80;85.60;;;;;;4993727;28;19916;-74
2023/07/31 11:59:54;;;;;;;3.25;1.85;;;25.80;86.70;;;;;;4993806;28;20130;-74
2023/07/31 12:02:20;;;;;;;3.13;1.80;;;25.90;84.90;;;;;;4994242;28;20061;-75
2023/07/31 12:04:47;;;;;;;4.93;2.20;;;25.90;85.80;;;;;;4993911;28;20033;-74
2023/07/31 12:07:12;;;;;;;3.95;1.98;;;26.00;86.60;;;;;;4991697;28;20028;-75
2023/07/31 12:09:38;;;;;;;3.45;2.00;;;26.00;87.70;;;;;;4993955;28;20387;-74
2023/07/31 12:12:09;;;;;;;4.50;2.10;;;26.10;85.20;;;;;;4994026;28;20085;-74
2023/07/31 12:14:35;;;;;;;3.25;1.90;;;26.10;85.70;;;;;;4992521;28;20081;-74
2023/07/31 12:17:04;;;;;;;3.13;2.03;;;26.20;87.00;;;;;;4994073;28;20035;-74
2023/07/31 12:19:30;;;;;;;3.10;2.08;;;26.30;81.70;;;;;;4992430;28;20435;-75
2023/07/31 12:21:57;;;;;;;2.85;1.90;;;26.40;84.00;;;;;;4993931;28;20533;-74
2023/07/31 12:24:23;;;;;;;3.50;1.80;;;26.50;84.50;;;;;;4992361;28;20030;-74
2023/07/31 12:26:49;;;;;;;3.22;1.90;;;26.50;84.00;;;;;;4992331;28;20092;-74
2023/07/31 12:29:15;;;;;;;3.17;1.88;;;26.50;84.40;;;;;;4993576;28;20038;-74
2023/07/31 12:31:42;;;;;;;3.13;1.70;;;26.50;81.60;;;;;;4993761;28;20381;-74
2023/07/31 12:34:18;;;;;;;2.25;1.50;;;26.50;82.90;;;;;;4993766;28;20101;-75
2023/07/31 12:36:44;;;;;;;3.55;2.10;;;26.60;81.80;;;;;;4997086;28;20037;-74
2023/07/31 12:39:10;;;;;;;3.40;2.03;;;26.60;80.20;;;;;;4997108;28;20030;-74
2023/07/31 12:41:36;;;;;;;3.95;1.85;;;26.60;79.20;;;;;;4997160;28;20149;-74
2023/07/31 12:44:02;;;;;;;3.22;1.58;;;26.60;81.80;;;;;;4997133;28;20018;-74
2023/07/31 12:46:28;;;;;;;3.15;1.83;;;26.70;81.20;;;;;;4997088;28;20037;-75